TAI582 MSLP-KIAD
Flight info
| Callsign | TAI582 |
|---|---|
| Flight time | 3h 17m |
| Altitude | 35000 |
| Route | ATUMA3F ATUMA UH225 TIRNA DCT KORTI UG521 CZM UB881 CUN UM219 MYDIA M219 CIGAR DCT DEANR Q109 CAMJO Q99 OGRAE DCT BZNGA DCT DORRN CAVLR6 |
| Aircraft | A320/M-SDE3FGHIRWY/LB1 |
Departure
| Time | 2026-04-15 19:23 |
|---|---|
| Airport | El Salvador International Airport Saint Óscar Arnulfo Romero y Galdámez (MSLP) |
Arrival
| Time | 2026-04-15 22:41 |
|---|---|
| Airport | Washington Dulles International Airport (KIAD) |
| Time | Latitude | Longitude | Altitude | Speed | Heading |
|---|---|---|---|---|---|
| 2026-04-15 19:14 | 13.44533 | -89.05369 | 94 ft | 0 kts | 340° |
| 2026-04-15 19:16 | 13.44516 | -89.05363 | 95 ft | 5 kts | 339° |
| 2026-04-15 19:16 | 13.44484 | -89.05350 | 92 ft | 5 kts | 340° |
| 2026-04-15 19:16 | 13.44467 | -89.05343 | 92 ft | 2 kts | 309° |
| 2026-04-15 19:17 | 13.44461 | -89.05334 | 92 ft | 2 kts | 268° |
| 2026-04-15 19:17 | 13.44462 | -89.05322 | 93 ft | 2 kts | 256° |
| 2026-04-15 19:17 | 13.44465 | -89.05312 | 92 ft | 2 kts | 251° |
| 2026-04-15 19:17 | 13.44465 | -89.05310 | 92 ft | 0 kts | 251° |
| 2026-04-15 19:19 | 13.44460 | -89.05326 | 93 ft | 7 kts | 251° |
| 2026-04-15 19:19 | 13.44407 | -89.05387 | 92 ft | 17 kts | 185° |
| 2026-04-15 19:19 | 13.44317 | -89.05471 | 92 ft | 20 kts | 249° |
| 2026-04-15 19:19 | 13.44268 | -89.05607 | 93 ft | 21 kts | 250° |
| 2026-04-15 19:20 | 13.44216 | -89.05748 | 91 ft | 21 kts | 250° |
| 2026-04-15 19:20 | 13.44165 | -89.05892 | 92 ft | 22 kts | 250° |
| 2026-04-15 19:20 | 13.44112 | -89.06038 | 94 ft | 22 kts | 249° |
| 2026-04-15 19:20 | 13.44059 | -89.06187 | 92 ft | 22 kts | 251° |
| 2026-04-15 19:21 | 13.44007 | -89.06336 | 88 ft | 22 kts | 249° |
| 2026-04-15 19:21 | 13.43953 | -89.06486 | 183 ft | 22 kts | 250° |
| 2026-04-15 19:21 | 13.43900 | -89.06636 | 180 ft | 22 kts | 250° |
| 2026-04-15 19:21 | 13.43848 | -89.06786 | 180 ft | 22 kts | 250° |
| 2026-04-15 19:22 | 13.43793 | -89.06936 | 180 ft | 22 kts | 250° |
| 2026-04-15 19:22 | 13.43691 | -89.06981 | 179 ft | 19 kts | 165° |
| 2026-04-15 19:22 | 13.43620 | -89.06895 | 173 ft | 18 kts | 76° |
| 2026-04-15 19:22 | 13.43708 | -89.06648 | 153 ft | 68 kts | 70° |
| 2026-04-15 19:23 | 13.43942 | -89.05990 | 93 ft | 128 kts | 70° |
| 2026-04-15 19:23 | 13.44309 | -89.04960 | 101 ft | 176 kts | 72° |
| 2026-04-15 19:23 | 13.44683 | -89.03692 | 528 ft | 182 kts | 89° |
| 2026-04-15 19:23 | 13.44687 | -89.02403 | 1136 ft | 180 kts | 97° |
| 2026-04-15 19:24 | 13.44573 | -89.01115 | 1740 ft | 183 kts | 99° |
| 2026-04-15 19:24 | 13.44438 | -88.99747 | 1960 ft | 203 kts | 96° |
| 2026-04-15 19:24 | 13.44307 | -88.98217 | 2078 ft | 227 kts | 95° |
| 2026-04-15 19:24 | 13.44188 | -88.96546 | 2526 ft | 239 kts | 94° |
| 2026-04-15 19:25 | 13.44084 | -88.94836 | 3235 ft | 241 kts | 91° |
| 2026-04-15 19:25 | 13.43992 | -88.93104 | 3923 ft | 244 kts | 91° |
| 2026-04-15 19:25 | 13.43909 | -88.91348 | 4554 ft | 248 kts | 90° |
| 2026-04-15 19:25 | 13.43831 | -88.89566 | 5213 ft | 251 kts | 89° |
| 2026-04-15 19:26 | 13.43753 | -88.87762 | 5858 ft | 255 kts | 89° |
| 2026-04-15 19:26 | 13.43675 | -88.85932 | 6496 ft | 259 kts | 89° |
| 2026-04-15 19:26 | 13.43598 | -88.84108 | 7264 ft | 253 kts | 90° |
| 2026-04-15 19:26 | 13.43522 | -88.82298 | 7912 ft | 254 kts | 89° |
| 2026-04-15 19:27 | 13.43668 | -88.80458 | 8176 ft | 268 kts | 70° |
| 2026-04-15 19:27 | 13.44625 | -88.78775 | 8434 ft | 280 kts | 44° |
| 2026-04-15 19:27 | 13.46225 | -88.77633 | 8940 ft | 283 kts | 19° |
| 2026-04-15 19:27 | 13.48176 | -88.77229 | 9528 ft | 285 kts | 1° |
| 2026-04-15 19:28 | 13.50177 | -88.77131 | 10109 ft | 292 kts | 3° |
| 2026-04-15 19:28 | 13.52283 | -88.77035 | 10242 ft | 314 kts | 3° |
| 2026-04-15 19:28 | 13.54521 | -88.76782 | 10378 ft | 334 kts | 14° |
| 2026-04-15 19:28 | 13.56836 | -88.76150 | 10498 ft | 354 kts | 15° |
| 2026-04-15 19:29 | 13.59260 | -88.75467 | 10692 ft | 369 kts | 16° |
| 2026-04-15 19:29 | 13.61755 | -88.74757 | 11146 ft | 375 kts | 16° |
| 2026-04-15 19:29 | 13.64283 | -88.74039 | 11695 ft | 379 kts | 16° |
| 2026-04-15 19:29 | 13.66839 | -88.73317 | 12206 ft | 383 kts | 16° |
| 2026-04-15 19:30 | 13.69418 | -88.72589 | 12698 ft | 386 kts | 17° |
| 2026-04-15 19:30 | 13.72015 | -88.71853 | 13195 ft | 389 kts | 17° |
| 2026-04-15 19:30 | 13.74641 | -88.71110 | 13677 ft | 393 kts | 17° |
| 2026-04-15 19:30 | 13.77288 | -88.70363 | 14105 ft | 396 kts | 17° |
| 2026-04-15 19:31 | 13.79954 | -88.69615 | 14551 ft | 399 kts | 17° |
| 2026-04-15 19:31 | 13.82641 | -88.68860 | 14968 ft | 401 kts | 17° |
| 2026-04-15 19:31 | 13.85340 | -88.68101 | 15379 ft | 404 kts | 17° |
| 2026-04-15 19:31 | 13.88061 | -88.67332 | 15760 ft | 407 kts | 17° |
| 2026-04-15 19:32 | 13.90803 | -88.66557 | 16168 ft | 410 kts | 17° |
| 2026-04-15 19:32 | 13.93560 | -88.65779 | 16616 ft | 413 kts | 17° |
| 2026-04-15 19:32 | 13.96336 | -88.64997 | 17020 ft | 415 kts | 17° |
| 2026-04-15 19:32 | 13.99132 | -88.64210 | 17435 ft | 417 kts | 17° |
| 2026-04-15 19:33 | 14.01942 | -88.63419 | 17845 ft | 420 kts | 17° |
| 2026-04-15 19:33 | 14.04802 | -88.62613 | 18236 ft | 422 kts | 17° |
| 2026-04-15 19:33 | 14.07647 | -88.61814 | 18575 ft | 424 kts | 16° |
| 2026-04-15 19:33 | 14.10501 | -88.61009 | 18917 ft | 426 kts | 16° |
| 2026-04-15 19:34 | 14.13360 | -88.60200 | 19251 ft | 427 kts | 16° |
| 2026-04-15 19:34 | 14.16234 | -88.59384 | 19583 ft | 429 kts | 16° |
| 2026-04-15 19:34 | 14.19108 | -88.58566 | 19910 ft | 430 kts | 16° |
| 2026-04-15 19:34 | 14.21993 | -88.57743 | 20270 ft | 431 kts | 16° |
| 2026-04-15 19:35 | 14.24874 | -88.56924 | 20679 ft | 429 kts | 16° |
| 2026-04-15 19:35 | 14.27761 | -88.56108 | 20998 ft | 430 kts | 16° |
| 2026-04-15 19:35 | 14.29675 | -88.55570 | 21210 ft | 431 kts | 16° |
| 2026-04-15 19:35 | 14.33561 | -88.54476 | 21602 ft | 433 kts | 15° |
| 2026-04-15 19:36 | 14.35527 | -88.53922 | 21850 ft | 435 kts | 15° |
| 2026-04-15 19:36 | 14.38450 | -88.53096 | 22126 ft | 436 kts | 15° |
| 2026-04-15 19:36 | 14.41381 | -88.52265 | 22400 ft | 438 kts | 15° |
| 2026-04-15 19:36 | 14.44315 | -88.51432 | 22699 ft | 438 kts | 15° |
| 2026-04-15 19:37 | 14.47266 | -88.50594 | 22947 ft | 440 kts | 15° |
| 2026-04-15 19:37 | 14.50226 | -88.49752 | 23233 ft | 442 kts | 15° |
| 2026-04-15 19:37 | 14.53196 | -88.48909 | 23467 ft | 443 kts | 15° |
| 2026-04-15 19:37 | 14.56178 | -88.48067 | 23720 ft | 445 kts | 15° |
| 2026-04-15 19:38 | 14.59165 | -88.47221 | 23893 ft | 446 kts | 15° |
| 2026-04-15 19:38 | 14.62160 | -88.46371 | 24071 ft | 447 kts | 15° |
| 2026-04-15 19:38 | 14.65166 | -88.45518 | 24260 ft | 448 kts | 14° |
| 2026-04-15 19:38 | 14.68180 | -88.44660 | 24429 ft | 450 kts | 14° |
| 2026-04-15 19:39 | 14.71201 | -88.43801 | 24614 ft | 451 kts | 14° |
| 2026-04-15 19:39 | 14.74233 | -88.42938 | 24804 ft | 453 kts | 14° |
| 2026-04-15 19:39 | 14.77273 | -88.42072 | 24992 ft | 454 kts | 14° |
| 2026-04-15 19:39 | 14.80321 | -88.41209 | 25176 ft | 455 kts | 14° |
| 2026-04-15 19:40 | 14.83380 | -88.40345 | 25336 ft | 456 kts | 14° |
| 2026-04-15 19:40 | 14.86450 | -88.39475 | 25502 ft | 458 kts | 14° |
| 2026-04-15 19:40 | 14.89519 | -88.38600 | 25665 ft | 459 kts | 14° |
| 2026-04-15 19:40 | 14.92603 | -88.37716 | 25856 ft | 460 kts | 14° |
| 2026-04-15 19:41 | 14.95684 | -88.36834 | 26032 ft | 460 kts | 14° |
| 2026-04-15 19:41 | 14.98776 | -88.35950 | 26209 ft | 461 kts | 14° |
| 2026-04-15 19:41 | 15.01869 | -88.35066 | 26372 ft | 462 kts | 14° |
| 2026-04-15 19:41 | 15.04968 | -88.34183 | 26533 ft | 463 kts | 14° |
| 2026-04-15 19:42 | 15.08080 | -88.33296 | 26684 ft | 464 kts | 13° |
| 2026-04-15 19:42 | 15.11191 | -88.32411 | 26827 ft | 464 kts | 13° |
| 2026-04-15 19:42 | 15.14307 | -88.31526 | 26950 ft | 465 kts | 13° |
| 2026-04-15 19:42 | 15.17473 | -88.30630 | 27097 ft | 466 kts | 13° |
| 2026-04-15 19:43 | 15.20599 | -88.29741 | 27229 ft | 467 kts | 13° |
| 2026-04-15 19:43 | 15.23731 | -88.28846 | 27389 ft | 466 kts | 13° |
| 2026-04-15 19:43 | 15.26850 | -88.27951 | 27596 ft | 465 kts | 13° |
| 2026-04-15 19:43 | 15.29966 | -88.27057 | 27809 ft | 464 kts | 13° |
| 2026-04-15 19:44 | 15.33076 | -88.26165 | 28005 ft | 464 kts | 13° |
| 2026-04-15 19:44 | 15.36185 | -88.25276 | 28182 ft | 463 kts | 13° |
| 2026-04-15 19:44 | 15.39287 | -88.24386 | 28393 ft | 462 kts | 13° |
| 2026-04-15 19:44 | 15.42381 | -88.23497 | 28619 ft | 461 kts | 13° |
| 2026-04-15 19:45 | 15.45473 | -88.22610 | 28830 ft | 460 kts | 13° |
| 2026-04-15 19:45 | 15.48552 | -88.21727 | 29042 ft | 459 kts | 13° |
| 2026-04-15 19:45 | 15.51632 | -88.20845 | 29231 ft | 459 kts | 13° |
| 2026-04-15 19:45 | 15.54708 | -88.19962 | 29428 ft | 458 kts | 12° |
| 2026-04-15 19:46 | 15.57779 | -88.19082 | 29644 ft | 458 kts | 12° |
| 2026-04-15 19:46 | 15.60844 | -88.18206 | 29870 ft | 457 kts | 12° |
| 2026-04-15 19:46 | 15.63912 | -88.17327 | 30072 ft | 457 kts | 12° |
| 2026-04-15 19:46 | 15.66974 | -88.16450 | 30251 ft | 456 kts | 12° |
| 2026-04-15 19:47 | 15.70032 | -88.15573 | 30427 ft | 456 kts | 13° |
| 2026-04-15 19:47 | 15.73089 | -88.14696 | 30613 ft | 455 kts | 13° |
| 2026-04-15 19:47 | 15.76139 | -88.13818 | 30804 ft | 454 kts | 13° |
| 2026-04-15 19:47 | 15.79176 | -88.12946 | 31004 ft | 453 kts | 13° |
| 2026-04-15 19:48 | 15.82217 | -88.12072 | 31196 ft | 452 kts | 13° |
| 2026-04-15 19:48 | 15.85243 | -88.11205 | 31385 ft | 451 kts | 13° |
| 2026-04-15 19:48 | 15.88272 | -88.10338 | 31588 ft | 450 kts | 13° |
| 2026-04-15 19:48 | 15.91291 | -88.09472 | 31785 ft | 449 kts | 13° |
| 2026-04-15 19:49 | 15.94301 | -88.08604 | 31992 ft | 448 kts | 13° |
| 2026-04-15 19:49 | 15.97302 | -88.07738 | 32208 ft | 447 kts | 13° |
| 2026-04-15 19:49 | 16.00330 | -88.06862 | 32432 ft | 445 kts | 13° |
| 2026-04-15 19:49 | 16.03313 | -88.06004 | 32657 ft | 444 kts | 13° |
| 2026-04-15 19:50 | 16.06285 | -88.05151 | 32868 ft | 442 kts | 13° |
| 2026-04-15 19:50 | 16.09247 | -88.04301 | 33071 ft | 441 kts | 13° |
| 2026-04-15 19:50 | 16.12206 | -88.03452 | 33278 ft | 440 kts | 13° |
| 2026-04-15 19:50 | 16.15149 | -88.02606 | 33484 ft | 439 kts | 14° |
| 2026-04-15 19:51 | 16.18094 | -88.01756 | 33692 ft | 438 kts | 14° |
| 2026-04-15 19:51 | 16.21019 | -88.00910 | 33908 ft | 437 kts | 14° |
| 2026-04-15 19:51 | 16.23948 | -88.00064 | 34100 ft | 436 kts | 14° |
| 2026-04-15 19:51 | 16.26872 | -87.99220 | 34267 ft | 435 kts | 14° |
| 2026-04-15 19:52 | 16.29785 | -87.98379 | 34424 ft | 435 kts | 14° |
| 2026-04-15 19:52 | 16.32700 | -87.97536 | 34573 ft | 435 kts | 14° |
| 2026-04-15 19:52 | 16.35613 | -87.96692 | 34736 ft | 434 kts | 14° |
| 2026-04-15 19:52 | 16.38523 | -87.95850 | 34909 ft | 433 kts | 13° |
| 2026-04-15 19:53 | 16.41425 | -87.95011 | 35051 ft | 433 kts | 13° |
| 2026-04-15 19:53 | 16.44332 | -87.94173 | 35097 ft | 435 kts | 13° |
| 2026-04-15 19:53 | 16.50209 | -87.92483 | 35099 ft | 441 kts | 13° |
| 2026-04-15 19:54 | 16.56141 | -87.90759 | 35099 ft | 445 kts | 13° |
| 2026-04-15 19:54 | 16.62127 | -87.89023 | 35097 ft | 448 kts | 13° |
| 2026-04-15 19:55 | 16.68141 | -87.87280 | 35098 ft | 449 kts | 13° |
| 2026-04-15 19:55 | 16.74173 | -87.85529 | 35101 ft | 450 kts | 13° |
| 2026-04-15 19:56 | 16.80210 | -87.83775 | 35108 ft | 451 kts | 13° |
| 2026-04-15 19:56 | 16.86248 | -87.82022 | 35113 ft | 451 kts | 13° |
| 2026-04-15 19:57 | 16.92333 | -87.80255 | 35110 ft | 450 kts | 13° |
| 2026-04-15 19:57 | 16.98332 | -87.78508 | 35112 ft | 450 kts | 13° |
| 2026-04-15 19:58 | 17.04405 | -87.76738 | 35119 ft | 450 kts | 13° |
| 2026-04-15 19:58 | 17.10438 | -87.74986 | 35118 ft | 450 kts | 13° |
| 2026-04-15 19:59 | 17.16463 | -87.73230 | 35115 ft | 450 kts | 13° |
| 2026-04-15 19:59 | 17.22492 | -87.71463 | 35116 ft | 450 kts | 13° |
| 2026-04-15 20:00 | 17.28513 | -87.69700 | 35125 ft | 449 kts | 13° |
| 2026-04-15 20:00 | 17.34521 | -87.67952 | 35125 ft | 447 kts | 13° |
| 2026-04-15 20:01 | 17.40510 | -87.66204 | 35132 ft | 447 kts | 13° |
| 2026-04-15 20:01 | 17.46490 | -87.64458 | 35126 ft | 446 kts | 13° |
| 2026-04-15 20:02 | 17.52468 | -87.62714 | 35125 ft | 446 kts | 13° |
| 2026-04-15 20:02 | 17.58440 | -87.60964 | 35124 ft | 446 kts | 13° |
| 2026-04-15 20:03 | 17.64411 | -87.59216 | 35122 ft | 445 kts | 13° |
| 2026-04-15 20:03 | 17.70382 | -87.57462 | 35119 ft | 445 kts | 13° |
| 2026-04-15 20:04 | 17.76351 | -87.55707 | 35123 ft | 445 kts | 13° |
| 2026-04-15 20:04 | 17.82360 | -87.53951 | 35120 ft | 445 kts | 13° |
| 2026-04-15 20:05 | 17.88322 | -87.52194 | 35122 ft | 445 kts | 13° |
| 2026-04-15 20:05 | 17.94291 | -87.50430 | 35123 ft | 445 kts | 13° |
| 2026-04-15 20:06 | 18.00258 | -87.48676 | 35121 ft | 445 kts | 13° |
| 2026-04-15 20:06 | 18.06227 | -87.46918 | 35119 ft | 445 kts | 13° |
| 2026-04-15 20:07 | 18.12197 | -87.45163 | 35119 ft | 445 kts | 13° |
| 2026-04-15 20:07 | 18.17150 | -87.43705 | 35120 ft | 445 kts | 13° |
| 2026-04-15 20:08 | 18.23117 | -87.41946 | 35120 ft | 445 kts | 13° |
| 2026-04-15 20:08 | 18.29080 | -87.40184 | 35121 ft | 445 kts | 13° |
| 2026-04-15 20:09 | 18.35086 | -87.38407 | 35121 ft | 445 kts | 13° |
| 2026-04-15 20:09 | 18.41052 | -87.36649 | 35125 ft | 445 kts | 13° |
| 2026-04-15 20:10 | 18.47018 | -87.34887 | 35025 ft | 444 kts | 13° |
| 2026-04-15 20:10 | 18.52954 | -87.33130 | 35016 ft | 443 kts | 13° |
| 2026-04-15 20:11 | 18.58894 | -87.31368 | 35039 ft | 443 kts | 13° |
| 2026-04-15 20:11 | 18.64832 | -87.29662 | 35041 ft | 441 kts | 11° |
| 2026-04-15 20:12 | 18.70831 | -87.28365 | 35045 ft | 440 kts | 8° |
| 2026-04-15 20:12 | 18.81631 | -87.26329 | 35048 ft | 439 kts | 8° |
| 2026-04-15 20:13 | 18.97798 | -87.22949 | 35045 ft | 438 kts | 8° |
| 2026-04-15 20:13 | 19.21719 | -87.18070 | 35047 ft | 437 kts | 8° |
| 2026-04-15 20:14 | 19.45631 | -87.13152 | 35039 ft | 437 kts | 8° |
| 2026-04-15 20:14 | 19.69510 | -87.08244 | 35046 ft | 437 kts | 8° |
| 2026-04-15 20:15 | 19.93420 | -87.03300 | 35050 ft | 438 kts | 8° |
| 2026-04-15 20:15 | 20.17344 | -86.98341 | 35055 ft | 438 kts | 8° |
| 2026-04-15 20:16 | 20.41253 | -86.93368 | 35106 ft | 437 kts | 8° |
| 2026-04-15 20:16 | 20.65032 | -86.88409 | 35079 ft | 435 kts | 8° |
| 2026-04-15 20:17 | 20.88777 | -86.83451 | 35090 ft | 434 kts | 8° |
| 2026-04-15 20:17 | 21.12651 | -86.78424 | 35082 ft | 435 kts | 8° |
| 2026-04-15 20:18 | 21.36418 | -86.73415 | 35076 ft | 435 kts | 8° |
| 2026-04-15 20:18 | 21.60183 | -86.68401 | 35080 ft | 435 kts | 8° |
| 2026-04-15 20:19 | 21.83958 | -86.63354 | 35073 ft | 436 kts | 8° |
| 2026-04-15 20:19 | 22.07759 | -86.58287 | 35079 ft | 436 kts | 8° |
| 2026-04-15 20:20 | 22.31559 | -86.53204 | 35093 ft | 435 kts | 8° |
| 2026-04-15 20:20 | 22.55272 | -86.48122 | 35079 ft | 435 kts | 8° |
| 2026-04-15 20:21 | 22.79014 | -86.43007 | 35079 ft | 435 kts | 8° |
| 2026-04-15 20:21 | 23.02813 | -86.37883 | 35089 ft | 436 kts | 8° |
| 2026-04-15 20:22 | 23.26666 | -86.32712 | 35089 ft | 438 kts | 10° |
| 2026-04-15 20:22 | 23.37806 | -86.27119 | 34858 ft | 447 kts | 21° |
| 2026-04-15 20:22 | 23.48915 | -86.21491 | 35004 ft | 445 kts | 21° |
| 2026-04-15 20:23 | 23.69370 | -86.10834 | 34952 ft | 443 kts | 21° |
| 2026-04-15 20:23 | 23.80488 | -86.05058 | 35068 ft | 441 kts | 21° |
| 2026-04-15 20:23 | 23.91594 | -85.99259 | 35165 ft | 439 kts | 21° |
| 2026-04-15 20:24 | 23.97020 | -85.96415 | 35059 ft | 444 kts | 21° |
| 2026-04-15 20:24 | 24.02612 | -85.93506 | 35109 ft | 446 kts | 21° |
| 2026-04-15 20:25 | 24.08232 | -85.90649 | 35104 ft | 446 kts | 21° |
| 2026-04-15 20:25 | 24.13869 | -85.87795 | 35111 ft | 446 kts | 21° |
| 2026-04-15 20:26 | 24.34875 | -85.77018 | 35121 ft | 447 kts | 21° |
| 2026-04-15 20:26 | 24.57458 | -85.65424 | 35129 ft | 448 kts | 21° |
| 2026-04-15 20:27 | 24.80057 | -85.53725 | 35131 ft | 449 kts | 21° |
| 2026-04-15 20:27 | 25.02674 | -85.41996 | 35147 ft | 449 kts | 21° |
| 2026-04-15 20:28 | 25.25262 | -85.30250 | 35151 ft | 449 kts | 21° |
| 2026-04-15 20:28 | 25.47876 | -85.18416 | 35150 ft | 450 kts | 21° |
| 2026-04-15 20:29 | 25.70686 | -85.06447 | 35145 ft | 451 kts | 21° |
| 2026-04-15 20:29 | 25.93427 | -84.94443 | 35152 ft | 454 kts | 21° |
| 2026-04-15 20:30 | 26.07583 | -84.86957 | 35159 ft | 455 kts | 21° |
| 2026-04-15 20:30 | 26.13304 | -84.83919 | 35167 ft | 455 kts | 21° |
| 2026-04-15 20:31 | 26.19014 | -84.80893 | 35169 ft | 455 kts | 21° |
| 2026-04-15 20:31 | 26.24730 | -84.77861 | 35159 ft | 455 kts | 21° |
| 2026-04-15 20:32 | 26.30453 | -84.74825 | 35163 ft | 455 kts | 21° |
| 2026-04-15 20:32 | 26.36176 | -84.71780 | 35163 ft | 456 kts | 21° |
| 2026-04-15 20:33 | 26.41890 | -84.68729 | 35166 ft | 456 kts | 21° |
| 2026-04-15 20:33 | 26.47642 | -84.65645 | 35177 ft | 456 kts | 21° |
| 2026-04-15 20:34 | 26.53375 | -84.62589 | 35160 ft | 457 kts | 21° |
| 2026-04-15 20:34 | 26.59113 | -84.59529 | 35155 ft | 457 kts | 21° |
| 2026-04-15 20:35 | 26.64857 | -84.56445 | 35156 ft | 458 kts | 21° |
| 2026-04-15 20:35 | 26.70603 | -84.53361 | 35154 ft | 458 kts | 21° |
| 2026-04-15 20:36 | 26.76353 | -84.50287 | 35157 ft | 458 kts | 21° |
| 2026-04-15 20:36 | 26.82099 | -84.47201 | 35157 ft | 459 kts | 21° |
| 2026-04-15 20:37 | 26.87858 | -84.44106 | 35156 ft | 459 kts | 21° |
| 2026-04-15 20:37 | 26.93616 | -84.41006 | 35161 ft | 459 kts | 21° |
| 2026-04-15 20:38 | 26.99302 | -84.37934 | 35164 ft | 460 kts | 21° |
| 2026-04-15 20:38 | 27.05067 | -84.34825 | 35170 ft | 460 kts | 21° |
| 2026-04-15 20:39 | 27.10832 | -84.31708 | 35172 ft | 460 kts | 21° |
| 2026-04-15 20:39 | 27.16602 | -84.28585 | 35179 ft | 461 kts | 21° |
| 2026-04-15 20:40 | 27.22389 | -84.25454 | 35175 ft | 462 kts | 21° |
| 2026-04-15 20:40 | 27.28183 | -84.22318 | 35180 ft | 463 kts | 21° |
| 2026-04-15 20:41 | 27.33988 | -84.19169 | 35186 ft | 463 kts | 21° |
| 2026-04-15 20:41 | 27.39840 | -84.15992 | 35188 ft | 464 kts | 21° |
| 2026-04-15 20:42 | 27.45653 | -84.12830 | 35186 ft | 464 kts | 22° |
| 2026-04-15 20:42 | 27.51464 | -84.09659 | 35189 ft | 464 kts | 22° |
| 2026-04-15 20:43 | 27.57282 | -84.06486 | 35189 ft | 464 kts | 22° |
| 2026-04-15 20:43 | 27.63093 | -84.03307 | 35192 ft | 464 kts | 22° |
| 2026-04-15 20:44 | 27.68908 | -84.00128 | 35193 ft | 464 kts | 22° |
| 2026-04-15 20:44 | 27.74722 | -83.96949 | 35196 ft | 464 kts | 22° |
| 2026-04-15 20:45 | 27.80541 | -83.93764 | 35196 ft | 465 kts | 22° |
| 2026-04-15 20:45 | 27.86353 | -83.90572 | 35207 ft | 465 kts | 22° |
| 2026-04-15 20:46 | 27.92173 | -83.87378 | 35203 ft | 465 kts | 22° |
| 2026-04-15 20:46 | 27.97987 | -83.84185 | 35205 ft | 465 kts | 22° |
| 2026-04-15 20:47 | 28.03843 | -83.80960 | 35203 ft | 465 kts | 22° |
| 2026-04-15 20:47 | 28.09667 | -83.77742 | 35200 ft | 465 kts | 22° |
| 2026-04-15 20:48 | 28.15485 | -83.74531 | 35201 ft | 465 kts | 22° |
| 2026-04-15 20:48 | 28.21313 | -83.71316 | 35201 ft | 466 kts | 22° |
| 2026-04-15 20:49 | 28.27139 | -83.68097 | 35201 ft | 466 kts | 22° |
| 2026-04-15 20:49 | 28.32967 | -83.64867 | 35205 ft | 466 kts | 22° |
| 2026-04-15 20:50 | 28.38795 | -83.61634 | 35205 ft | 466 kts | 22° |
| 2026-04-15 20:50 | 28.44622 | -83.58390 | 35200 ft | 467 kts | 22° |
| 2026-04-15 20:51 | 28.50456 | -83.55144 | 35201 ft | 466 kts | 22° |
| 2026-04-15 20:51 | 28.56288 | -83.51902 | 35209 ft | 467 kts | 22° |
| 2026-04-15 20:52 | 28.62121 | -83.48658 | 35205 ft | 467 kts | 22° |
| 2026-04-15 20:52 | 28.67991 | -83.45384 | 35202 ft | 467 kts | 22° |
| 2026-04-15 20:53 | 28.73821 | -83.42128 | 35200 ft | 467 kts | 22° |
| 2026-04-15 20:53 | 28.79648 | -83.38857 | 35207 ft | 467 kts | 22° |
| 2026-04-15 20:54 | 28.85473 | -83.35588 | 35203 ft | 467 kts | 22° |
| 2026-04-15 20:54 | 28.91302 | -83.32319 | 35199 ft | 467 kts | 22° |
| 2026-04-15 20:55 | 28.97128 | -83.29042 | 35196 ft | 467 kts | 22° |
| 2026-04-15 20:55 | 29.02960 | -83.25772 | 35196 ft | 467 kts | 22° |
| 2026-04-15 20:56 | 29.08787 | -83.22494 | 35197 ft | 467 kts | 22° |
| 2026-04-15 20:56 | 29.14623 | -83.19205 | 35195 ft | 467 kts | 22° |
| 2026-04-15 20:57 | 29.19506 | -83.16450 | 35193 ft | 467 kts | 22° |
| 2026-04-15 20:57 | 29.26275 | -83.12613 | 35192 ft | 467 kts | 22° |
| 2026-04-15 20:58 | 29.31162 | -83.09849 | 35190 ft | 467 kts | 22° |
| 2026-04-15 20:58 | 29.36995 | -83.06548 | 35193 ft | 467 kts | 22° |
| 2026-04-15 20:59 | 29.42824 | -83.03251 | 35188 ft | 468 kts | 22° |
| 2026-04-15 20:59 | 29.48659 | -82.99932 | 35186 ft | 468 kts | 22° |
| 2026-04-15 21:00 | 29.54703 | -82.97325 | 35186 ft | 462 kts | 11° |
| 2026-04-15 21:00 | 29.60931 | -82.95497 | 35184 ft | 462 kts | 11° |
| 2026-04-15 21:01 | 29.67172 | -82.93655 | 35193 ft | 463 kts | 11° |
| 2026-04-15 21:01 | 29.73412 | -82.91806 | 35194 ft | 463 kts | 11° |
| 2026-04-15 21:02 | 29.79658 | -82.89941 | 35194 ft | 464 kts | 11° |
| 2026-04-15 21:02 | 29.85943 | -82.88069 | 35193 ft | 463 kts | 11° |
| 2026-04-15 21:03 | 29.92189 | -82.86216 | 35208 ft | 463 kts | 11° |
| 2026-04-15 21:03 | 29.98427 | -82.84366 | 35207 ft | 463 kts | 11° |
| 2026-04-15 21:04 | 30.04671 | -82.82509 | 35197 ft | 463 kts | 11° |
| 2026-04-15 21:04 | 30.10913 | -82.80642 | 35189 ft | 463 kts | 11° |
| 2026-04-15 21:05 | 30.17151 | -82.78772 | 35183 ft | 463 kts | 11° |
| 2026-04-15 21:05 | 30.23392 | -82.76903 | 35185 ft | 464 kts | 11° |
| 2026-04-15 21:06 | 30.29645 | -82.75032 | 35205 ft | 464 kts | 11° |
| 2026-04-15 21:06 | 30.35902 | -82.73152 | 35196 ft | 465 kts | 11° |
| 2026-04-15 21:07 | 30.42156 | -82.71272 | 35194 ft | 464 kts | 11° |
| 2026-04-15 21:07 | 30.48412 | -82.69393 | 35193 ft | 464 kts | 11° |
| 2026-04-15 21:08 | 30.54688 | -82.67658 | 35186 ft | 463 kts | 8° |
| 2026-04-15 21:08 | 30.61019 | -82.66342 | 35191 ft | 462 kts | 6° |
| 2026-04-15 21:09 | 30.67368 | -82.65125 | 35192 ft | 462 kts | 6° |
| 2026-04-15 21:09 | 30.73314 | -82.63900 | 35197 ft | 463 kts | 7° |
| 2026-04-15 21:10 | 30.79651 | -82.62527 | 35186 ft | 463 kts | 7° |
| 2026-04-15 21:10 | 30.85990 | -82.61145 | 35179 ft | 464 kts | 7° |
| 2026-04-15 21:11 | 30.92339 | -82.59785 | 35178 ft | 464 kts | 7° |
| 2026-04-15 21:11 | 30.98696 | -82.58435 | 35190 ft | 464 kts | 7° |
| 2026-04-15 21:12 | 31.05056 | -82.57072 | 35191 ft | 465 kts | 7° |
| 2026-04-15 21:12 | 31.11234 | -82.54763 | 35184 ft | 473 kts | 24° |
| 2026-04-15 21:13 | 31.17066 | -82.51201 | 35181 ft | 473 kts | 24° |
| 2026-04-15 21:13 | 31.22910 | -82.47659 | 35178 ft | 473 kts | 24° |
| 2026-04-15 21:14 | 31.28753 | -82.44116 | 35181 ft | 473 kts | 24° |
| 2026-04-15 21:14 | 31.34603 | -82.40550 | 35181 ft | 474 kts | 24° |
| 2026-04-15 21:15 | 31.40451 | -82.36987 | 35175 ft | 474 kts | 24° |
| 2026-04-15 21:15 | 31.46307 | -82.33414 | 35173 ft | 475 kts | 24° |
| 2026-04-15 21:16 | 31.52163 | -82.29831 | 35170 ft | 475 kts | 24° |
| 2026-04-15 21:16 | 31.58014 | -82.26247 | 35176 ft | 475 kts | 24° |
| 2026-04-15 21:17 | 31.63874 | -82.22658 | 35170 ft | 475 kts | 24° |
| 2026-04-15 21:17 | 31.69739 | -82.19057 | 35160 ft | 475 kts | 24° |
| 2026-04-15 21:18 | 31.75638 | -82.15430 | 35159 ft | 476 kts | 24° |
| 2026-04-15 21:18 | 31.81498 | -82.11816 | 35162 ft | 476 kts | 24° |
| 2026-04-15 21:19 | 31.87366 | -82.08191 | 35166 ft | 477 kts | 24° |
| 2026-04-15 21:19 | 31.93252 | -82.04560 | 35164 ft | 478 kts | 24° |
| 2026-04-15 21:20 | 31.99147 | -82.00922 | 35166 ft | 478 kts | 24° |
| 2026-04-15 21:20 | 32.05044 | -81.97275 | 35169 ft | 479 kts | 24° |
| 2026-04-15 21:21 | 32.10944 | -81.93612 | 35170 ft | 480 kts | 24° |
| 2026-04-15 21:21 | 32.16862 | -81.89952 | 35169 ft | 480 kts | 23° |
| 2026-04-15 21:22 | 32.22831 | -81.86437 | 35166 ft | 480 kts | 22° |
| 2026-04-15 21:22 | 32.28831 | -81.82985 | 35168 ft | 480 kts | 22° |
| 2026-04-15 21:23 | 32.34821 | -81.79495 | 35152 ft | 480 kts | 22° |
| 2026-04-15 21:23 | 32.40796 | -81.75966 | 35150 ft | 480 kts | 22° |
| 2026-04-15 21:24 | 32.46777 | -81.72423 | 35145 ft | 480 kts | 22° |
| 2026-04-15 21:24 | 32.52762 | -81.68889 | 35143 ft | 481 kts | 22° |
| 2026-04-15 21:25 | 32.58753 | -81.65356 | 35182 ft | 481 kts | 23° |
| 2026-04-15 21:25 | 32.64783 | -81.61783 | 35183 ft | 481 kts | 22° |
| 2026-04-15 21:26 | 32.70775 | -81.58224 | 35184 ft | 481 kts | 22° |
| 2026-04-15 21:26 | 32.76761 | -81.54672 | 35144 ft | 481 kts | 22° |
| 2026-04-15 21:27 | 32.82747 | -81.51108 | 35143 ft | 481 kts | 22° |
| 2026-04-15 21:27 | 32.88730 | -81.47539 | 35153 ft | 481 kts | 22° |
| 2026-04-15 21:28 | 32.94721 | -81.43970 | 35146 ft | 482 kts | 22° |
| 2026-04-15 21:28 | 33.00714 | -81.40392 | 35143 ft | 482 kts | 22° |
| 2026-04-15 21:29 | 33.06702 | -81.36802 | 35145 ft | 482 kts | 22° |
| 2026-04-15 21:29 | 33.12685 | -81.33209 | 35149 ft | 482 kts | 22° |
| 2026-04-15 21:30 | 33.17701 | -81.30196 | 35154 ft | 482 kts | 22° |
| 2026-04-15 21:30 | 33.23691 | -81.26596 | 35153 ft | 482 kts | 22° |
| 2026-04-15 21:31 | 33.32671 | -81.21188 | 35152 ft | 482 kts | 22° |
| 2026-04-15 21:32 | 33.41647 | -81.15770 | 35142 ft | 482 kts | 22° |
| 2026-04-15 21:32 | 33.47630 | -81.12153 | 35137 ft | 482 kts | 22° |
| 2026-04-15 21:33 | 33.53612 | -81.08527 | 35135 ft | 482 kts | 22° |
| 2026-04-15 21:33 | 33.59603 | -81.04893 | 35137 ft | 483 kts | 22° |
| 2026-04-15 21:34 | 33.65594 | -81.01251 | 35148 ft | 483 kts | 22° |
| 2026-04-15 21:34 | 33.71583 | -80.97601 | 35140 ft | 483 kts | 22° |
| 2026-04-15 21:35 | 33.77575 | -80.93947 | 35116 ft | 483 kts | 22° |
| 2026-04-15 21:35 | 33.83568 | -80.90278 | 35110 ft | 483 kts | 24° |
| 2026-04-15 21:36 | 33.89159 | -80.85608 | 35120 ft | 489 kts | 34° |
| 2026-04-15 21:36 | 33.94533 | -80.80573 | 35115 ft | 489 kts | 34° |
| 2026-04-15 21:37 | 33.99898 | -80.75531 | 35118 ft | 490 kts | 34° |
| 2026-04-15 21:37 | 34.05273 | -80.70484 | 35119 ft | 490 kts | 34° |
| 2026-04-15 21:38 | 34.10644 | -80.65424 | 35120 ft | 490 kts | 34° |
| 2026-04-15 21:38 | 34.16013 | -80.60364 | 35147 ft | 490 kts | 34° |
| 2026-04-15 21:39 | 34.21386 | -80.55291 | 35145 ft | 490 kts | 34° |
| 2026-04-15 21:39 | 34.26752 | -80.50209 | 35145 ft | 490 kts | 34° |
| 2026-04-15 21:40 | 34.32150 | -80.45199 | 35145 ft | 489 kts | 33° |
| 2026-04-15 21:40 | 34.37571 | -80.40240 | 35151 ft | 488 kts | 33° |
| 2026-04-15 21:41 | 34.42983 | -80.35269 | 35141 ft | 488 kts | 33° |
| 2026-04-15 21:41 | 34.48425 | -80.30236 | 35128 ft | 489 kts | 33° |
| 2026-04-15 21:42 | 34.53821 | -80.25225 | 35123 ft | 488 kts | 33° |
| 2026-04-15 21:42 | 34.59209 | -80.20215 | 35114 ft | 488 kts | 33° |
| 2026-04-15 21:43 | 34.64604 | -80.15193 | 35119 ft | 488 kts | 33° |
| 2026-04-15 21:43 | 34.69994 | -80.10166 | 35124 ft | 488 kts | 33° |
| 2026-04-15 21:44 | 34.75391 | -80.05145 | 35119 ft | 489 kts | 33° |
| 2026-04-15 21:44 | 34.80793 | -80.00124 | 35115 ft | 489 kts | 33° |
| 2026-04-15 21:45 | 34.86245 | -79.95190 | 35120 ft | 488 kts | 31° |
| 2026-04-15 21:45 | 34.91802 | -79.90351 | 35127 ft | 488 kts | 31° |
| 2026-04-15 21:46 | 34.97319 | -79.85541 | 35115 ft | 488 kts | 31° |
| 2026-04-15 21:46 | 35.02821 | -79.80678 | 35120 ft | 488 kts | 32° |
| 2026-04-15 21:47 | 35.08312 | -79.75788 | 35129 ft | 488 kts | 32° |
| 2026-04-15 21:47 | 35.13791 | -79.70900 | 35113 ft | 488 kts | 32° |
| 2026-04-15 21:48 | 35.19285 | -79.66053 | 35111 ft | 487 kts | 31° |
| 2026-04-15 21:48 | 35.24844 | -79.61335 | 35125 ft | 486 kts | 30° |
| 2026-04-15 21:49 | 35.30417 | -79.56639 | 35143 ft | 486 kts | 30° |
| 2026-04-15 21:49 | 35.35826 | -79.52026 | 35129 ft | 485 kts | 30° |
| 2026-04-15 21:50 | 35.41358 | -79.47260 | 35106 ft | 486 kts | 30° |
| 2026-04-15 21:50 | 35.46900 | -79.42478 | 35102 ft | 486 kts | 30° |
| 2026-04-15 21:51 | 35.52407 | -79.37727 | 35105 ft | 482 kts | 30° |
| 2026-04-15 21:51 | 35.57926 | -79.32968 | 35100 ft | 481 kts | 30° |
| 2026-04-15 21:52 | 35.63406 | -79.28231 | 35094 ft | 481 kts | 30° |
| 2026-04-15 21:52 | 35.68880 | -79.23490 | 35101 ft | 482 kts | 30° |
| 2026-04-15 21:53 | 35.74482 | -79.19026 | 35101 ft | 478 kts | 25° |
| 2026-04-15 21:53 | 35.80245 | -79.14935 | 35100 ft | 478 kts | 24° |
| 2026-04-15 21:54 | 35.86039 | -79.10908 | 35087 ft | 478 kts | 24° |
| 2026-04-15 21:54 | 35.91819 | -79.06836 | 35083 ft | 479 kts | 25° |
| 2026-04-15 21:55 | 35.97584 | -79.02719 | 35099 ft | 478 kts | 25° |
| 2026-04-15 21:55 | 36.03347 | -78.98608 | 35104 ft | 478 kts | 25° |
| 2026-04-15 21:56 | 36.09111 | -78.94503 | 35111 ft | 478 kts | 25° |
| 2026-04-15 21:56 | 36.14875 | -78.90387 | 35113 ft | 478 kts | 25° |
| 2026-04-15 21:57 | 36.20630 | -78.86264 | 35114 ft | 478 kts | 25° |
| 2026-04-15 21:57 | 36.26392 | -78.82129 | 35117 ft | 480 kts | 25° |
| 2026-04-15 21:58 | 36.32172 | -78.77978 | 35103 ft | 481 kts | 25° |
| 2026-04-15 21:58 | 36.38001 | -78.73781 | 35082 ft | 481 kts | 25° |
| 2026-04-15 21:59 | 36.43791 | -78.69607 | 35084 ft | 482 kts | 25° |
| 2026-04-15 21:59 | 36.49599 | -78.65428 | 35092 ft | 483 kts | 25° |
| 2026-04-15 22:00 | 36.54429 | -78.61933 | 35083 ft | 484 kts | 26° |
| 2026-04-15 22:00 | 36.60246 | -78.57712 | 35070 ft | 484 kts | 26° |
| 2026-04-15 22:01 | 36.66068 | -78.53488 | 35074 ft | 484 kts | 25° |
| 2026-04-15 22:01 | 36.71890 | -78.49266 | 35078 ft | 485 kts | 25° |
| 2026-04-15 22:02 | 36.77730 | -78.45013 | 35066 ft | 486 kts | 26° |
| 2026-04-15 22:02 | 36.83609 | -78.40719 | 35067 ft | 487 kts | 26° |
| 2026-04-15 22:03 | 36.89461 | -78.36440 | 35065 ft | 487 kts | 26° |
| 2026-04-15 22:03 | 36.95311 | -78.32151 | 35059 ft | 488 kts | 26° |
| 2026-04-15 22:04 | 37.01181 | -78.27845 | 35045 ft | 489 kts | 26° |
| 2026-04-15 22:04 | 37.07044 | -78.23544 | 35042 ft | 489 kts | 26° |
| 2026-04-15 22:05 | 37.12917 | -78.19209 | 35057 ft | 490 kts | 26° |
| 2026-04-15 22:05 | 37.18788 | -78.14875 | 35047 ft | 491 kts | 26° |
| 2026-04-15 22:06 | 37.24686 | -78.10532 | 35041 ft | 491 kts | 26° |
| 2026-04-15 22:06 | 37.30569 | -78.06178 | 35031 ft | 491 kts | 26° |
| 2026-04-15 22:07 | 37.36413 | -78.01839 | 35039 ft | 483 kts | 26° |
| 2026-04-15 22:07 | 37.39295 | -77.99694 | 34905 ft | 478 kts | 26° |
| 2026-04-15 22:07 | 37.42113 | -77.97595 | 34704 ft | 465 kts | 25° |
| 2026-04-15 22:07 | 37.44875 | -77.95536 | 34362 ft | 458 kts | 26° |
| 2026-04-15 22:08 | 37.47600 | -77.93509 | 33933 ft | 453 kts | 26° |
| 2026-04-15 22:08 | 37.50294 | -77.91502 | 33429 ft | 448 kts | 26° |
| 2026-04-15 22:08 | 37.52978 | -77.89533 | 32937 ft | 443 kts | 22° |
| 2026-04-15 22:08 | 37.55746 | -77.87891 | 32453 ft | 436 kts | 19° |
| 2026-04-15 22:09 | 37.58505 | -77.86335 | 31968 ft | 434 kts | 19° |
| 2026-04-15 22:09 | 37.61255 | -77.84779 | 31481 ft | 431 kts | 19° |
| 2026-04-15 22:09 | 37.63975 | -77.83233 | 31030 ft | 428 kts | 19° |
| 2026-04-15 22:09 | 37.66680 | -77.81693 | 30588 ft | 424 kts | 19° |
| 2026-04-15 22:10 | 37.69406 | -77.80167 | 30162 ft | 421 kts | 19° |
| 2026-04-15 22:10 | 37.72073 | -77.78694 | 29682 ft | 417 kts | 18° |
| 2026-04-15 22:10 | 37.74711 | -77.77241 | 29217 ft | 414 kts | 18° |
| 2026-04-15 22:10 | 37.77350 | -77.75785 | 28747 ft | 410 kts | 18° |
| 2026-04-15 22:11 | 37.79947 | -77.74347 | 28307 ft | 406 kts | 18° |
| 2026-04-15 22:11 | 37.82526 | -77.72920 | 27872 ft | 403 kts | 18° |
| 2026-04-15 22:11 | 37.85078 | -77.71505 | 27450 ft | 399 kts | 18° |
| 2026-04-15 22:11 | 37.87601 | -77.70101 | 27110 ft | 391 kts | 18° |
| 2026-04-15 22:12 | 37.90064 | -77.68723 | 26461 ft | 384 kts | 18° |
| 2026-04-15 22:12 | 37.92491 | -77.67366 | 25781 ft | 378 kts | 18° |
| 2026-04-15 22:12 | 37.94878 | -77.66029 | 25100 ft | 373 kts | 18° |
| 2026-04-15 22:12 | 37.97233 | -77.64706 | 24432 ft | 367 kts | 18° |
| 2026-04-15 22:13 | 37.99551 | -77.63405 | 23786 ft | 362 kts | 18° |
| 2026-04-15 22:13 | 38.01840 | -77.62124 | 23072 ft | 357 kts | 18° |
| 2026-04-15 22:13 | 38.04101 | -77.60859 | 22314 ft | 353 kts | 18° |
| 2026-04-15 22:13 | 38.06333 | -77.59598 | 21596 ft | 349 kts | 19° |
| 2026-04-15 22:14 | 38.08515 | -77.58277 | 20888 ft | 347 kts | 21° |
| 2026-04-15 22:14 | 38.10668 | -77.56909 | 20193 ft | 345 kts | 22° |
| 2026-04-15 22:14 | 38.12796 | -77.55522 | 19547 ft | 341 kts | 22° |
| 2026-04-15 22:14 | 38.14895 | -77.54151 | 18934 ft | 337 kts | 22° |
| 2026-04-15 22:15 | 38.16972 | -77.52807 | 18329 ft | 333 kts | 22° |
| 2026-04-15 22:15 | 38.19052 | -77.51467 | 17645 ft | 329 kts | 22° |
| 2026-04-15 22:15 | 38.21058 | -77.50178 | 17001 ft | 325 kts | 22° |
| 2026-04-15 22:15 | 38.23097 | -77.48872 | 16364 ft | 322 kts | 21° |
| 2026-04-15 22:16 | 38.25166 | -77.47896 | 15734 ft | 314 kts | 11° |
| 2026-04-15 22:16 | 38.27266 | -77.47157 | 15108 ft | 312 kts | 11° |
| 2026-04-15 22:16 | 38.29227 | -77.46472 | 14544 ft | 310 kts | 11° |
| 2026-04-15 22:16 | 38.31302 | -77.45746 | 13959 ft | 308 kts | 12° |
| 2026-04-15 22:17 | 38.33355 | -77.45027 | 13336 ft | 305 kts | 12° |
| 2026-04-15 22:17 | 38.35397 | -77.44311 | 12682 ft | 303 kts | 12° |
| 2026-04-15 22:17 | 38.37424 | -77.43594 | 12046 ft | 301 kts | 12° |
| 2026-04-15 22:17 | 38.39434 | -77.42883 | 11418 ft | 299 kts | 12° |
| 2026-04-15 22:18 | 38.41436 | -77.42175 | 10785 ft | 298 kts | 11° |
| 2026-04-15 22:18 | 38.43432 | -77.41469 | 10168 ft | 297 kts | 11° |
| 2026-04-15 22:18 | 38.45420 | -77.40766 | 9505 ft | 296 kts | 11° |
| 2026-04-15 22:18 | 38.47424 | -77.40057 | 8866 ft | 301 kts | 11° |
| 2026-04-15 22:19 | 38.49432 | -77.39344 | 8350 ft | 297 kts | 11° |
| 2026-04-15 22:19 | 38.51428 | -77.38654 | 7653 ft | 296 kts | 11° |
| 2026-04-15 22:19 | 38.53417 | -77.38007 | 6992 ft | 294 kts | 10° |
| 2026-04-15 22:19 | 38.55425 | -77.37377 | 6389 ft | 291 kts | 10° |
| 2026-04-15 22:20 | 38.57376 | -77.36770 | 6167 ft | 289 kts | 10° |
| 2026-04-15 22:20 | 38.59323 | -77.36348 | 5940 ft | 285 kts | 359° |
| 2026-04-15 22:20 | 38.61328 | -77.36290 | 5738 ft | 284 kts | 357° |
| 2026-04-15 22:20 | 38.63307 | -77.36229 | 5524 ft | 284 kts | 358° |
| 2026-04-15 22:21 | 38.65261 | -77.36159 | 5320 ft | 277 kts | 358° |
| 2026-04-15 22:21 | 38.67165 | -77.36086 | 5130 ft | 269 kts | 358° |
| 2026-04-15 22:21 | 38.69014 | -77.36016 | 4925 ft | 262 kts | 358° |
| 2026-04-15 22:21 | 38.70803 | -77.35948 | 4735 ft | 254 kts | 358° |
| 2026-04-15 22:22 | 38.72544 | -77.35882 | 4547 ft | 247 kts | 358° |
| 2026-04-15 22:22 | 38.74254 | -77.35819 | 4371 ft | 246 kts | 358° |
| 2026-04-15 22:22 | 38.75958 | -77.35758 | 4192 ft | 245 kts | 358° |
| 2026-04-15 22:22 | 38.77657 | -77.35695 | 4014 ft | 245 kts | 358° |
| 2026-04-15 22:23 | 38.79356 | -77.35631 | 3944 ft | 244 kts | 358° |
| 2026-04-15 22:23 | 38.81055 | -77.35567 | 3887 ft | 244 kts | 358° |
| 2026-04-15 22:23 | 38.82773 | -77.35506 | 3823 ft | 243 kts | 359° |
| 2026-04-15 22:23 | 38.84456 | -77.35448 | 3515 ft | 242 kts | 358° |
| 2026-04-15 22:24 | 38.86131 | -77.35392 | 3202 ft | 241 kts | 359° |
| 2026-04-15 22:24 | 38.87798 | -77.35336 | 3016 ft | 239 kts | 359° |
| 2026-04-15 22:24 | 38.89467 | -77.35278 | 3012 ft | 241 kts | 359° |
| 2026-04-15 22:24 | 38.91142 | -77.35217 | 3008 ft | 241 kts | 359° |
| 2026-04-15 22:25 | 38.92847 | -77.35152 | 3008 ft | 242 kts | 358° |
| 2026-04-15 22:25 | 38.94525 | -77.35087 | 3001 ft | 242 kts | 359° |
| 2026-04-15 22:25 | 38.96190 | -77.35027 | 3006 ft | 242 kts | 358° |
| 2026-04-15 22:25 | 38.97893 | -77.34965 | 3009 ft | 243 kts | 359° |
| 2026-04-15 22:26 | 38.99590 | -77.34903 | 3007 ft | 244 kts | 358° |
| 2026-04-15 22:26 | 39.01282 | -77.34840 | 2996 ft | 242 kts | 359° |
| 2026-04-15 22:26 | 39.02943 | -77.34781 | 2839 ft | 235 kts | 358° |
| 2026-04-15 22:26 | 39.04553 | -77.34722 | 2712 ft | 227 kts | 359° |
| 2026-04-15 22:27 | 39.06110 | -77.34666 | 2598 ft | 222 kts | 358° |
| 2026-04-15 22:27 | 39.07608 | -77.34835 | 2409 ft | 211 kts | 333° |
| 2026-04-15 22:27 | 39.08702 | -77.35921 | 2235 ft | 194 kts | 295° |
| 2026-04-15 22:27 | 39.09027 | -77.37516 | 2077 ft | 184 kts | 265° |
| 2026-04-15 22:28 | 39.08982 | -77.38611 | 2026 ft | 185 kts | 261° |
| 2026-04-15 22:28 | 39.08818 | -77.40282 | 2014 ft | 185 kts | 251° |
| 2026-04-15 22:28 | 39.08305 | -77.41746 | 2019 ft | 183 kts | 230° |
| 2026-04-15 22:28 | 39.07287 | -77.42727 | 2018 ft | 183 kts | 208° |
| 2026-04-15 22:29 | 39.06112 | -77.43359 | 2014 ft | 185 kts | 194° |
| 2026-04-15 22:29 | 39.04820 | -77.43462 | 1987 ft | 188 kts | 183° |
| 2026-04-15 22:29 | 39.03494 | -77.43479 | 1801 ft | 188 kts | 184° |
| 2026-04-15 22:29 | 39.02189 | -77.43498 | 1595 ft | 185 kts | 184° |
| 2026-04-15 22:30 | 39.00934 | -77.43515 | 1370 ft | 181 kts | 183° |
| 2026-04-15 22:30 | 38.99665 | -77.43535 | 1118 ft | 179 kts | 183° |
| 2026-04-15 22:30 | 38.98468 | -77.43553 | 904 ft | 164 kts | 181° |
| 2026-04-15 22:30 | 38.97322 | -77.43565 | 914 ft | 172 kts | 180° |
| 2026-04-15 22:31 | 38.96109 | -77.43514 | 1686 ft | 185 kts | 180° |
| 2026-04-15 22:31 | 38.94683 | -77.43408 | 1936 ft | 223 kts | 179° |
| 2026-04-15 22:31 | 38.93176 | -77.43306 | 1993 ft | 207 kts | 177° |
| 2026-04-15 22:31 | 38.91882 | -77.42626 | 2230 ft | 208 kts | 141° |
| 2026-04-15 22:32 | 38.91114 | -77.41036 | 2473 ft | 218 kts | 105° |
| 2026-04-15 22:32 | 38.91117 | -77.39060 | 2714 ft | 225 kts | 82° |
| 2026-04-15 22:32 | 38.91417 | -77.37067 | 2928 ft | 229 kts | 79° |
| 2026-04-15 22:32 | 38.91773 | -77.35082 | 2996 ft | 228 kts | 77° |
| 2026-04-15 22:33 | 38.92537 | -77.33297 | 3004 ft | 231 kts | 42° |
| 2026-04-15 22:33 | 38.93919 | -77.32323 | 3005 ft | 229 kts | 7° |
| 2026-04-15 22:33 | 38.95477 | -77.32395 | 3009 ft | 223 kts | 344° |
| 2026-04-15 22:33 | 38.96993 | -77.32893 | 3010 ft | 226 kts | 340° |
| 2026-04-15 22:34 | 38.98509 | -77.33449 | 3008 ft | 226 kts | 339° |
| 2026-04-15 22:34 | 39.00018 | -77.33993 | 2998 ft | 224 kts | 340° |
| 2026-04-15 22:34 | 39.01517 | -77.34545 | 2753 ft | 223 kts | 339° |
| 2026-04-15 22:34 | 39.03004 | -77.35101 | 2485 ft | 223 kts | 340° |
| 2026-04-15 22:35 | 39.04491 | -77.35658 | 2227 ft | 222 kts | 339° |
| 2026-04-15 22:35 | 39.05975 | -77.36212 | 2040 ft | 222 kts | 340° |
| 2026-04-15 22:35 | 39.07465 | -77.36767 | 2004 ft | 224 kts | 340° |
| 2026-04-15 22:35 | 39.08959 | -77.37318 | 2019 ft | 222 kts | 338° |
| 2026-04-15 22:36 | 39.10270 | -77.38248 | 2014 ft | 215 kts | 306° |
| 2026-04-15 22:36 | 39.10892 | -77.39851 | 2046 ft | 191 kts | 271° |
| 2026-04-15 22:36 | 39.10863 | -77.41512 | 2015 ft | 177 kts | 251° |
| 2026-04-15 22:36 | 39.10161 | -77.42734 | 2012 ft | 172 kts | 210° |
| 2026-04-15 22:37 | 39.09067 | -77.43346 | 2013 ft | 172 kts | 199° |
| 2026-04-15 22:37 | 39.07869 | -77.43465 | 2014 ft | 175 kts | 180° |
| 2026-04-15 22:37 | 39.06643 | -77.43438 | 2015 ft | 176 kts | 183° |
| 2026-04-15 22:37 | 39.05481 | -77.43448 | 2003 ft | 156 kts | 184° |
| 2026-04-15 22:38 | 39.04426 | -77.43462 | 1922 ft | 148 kts | 184° |
| 2026-04-15 22:38 | 39.03423 | -77.43478 | 1788 ft | 143 kts | 184° |
| 2026-04-15 22:38 | 39.02428 | -77.43493 | 1628 ft | 141 kts | 186° |
| 2026-04-15 22:38 | 39.01447 | -77.43508 | 1441 ft | 140 kts | 184° |
| 2026-04-15 22:39 | 39.00443 | -77.43524 | 1275 ft | 145 kts | 185° |
| 2026-04-15 22:39 | 38.99451 | -77.43538 | 1088 ft | 140 kts | 184° |
| 2026-04-15 22:39 | 38.98462 | -77.43553 | 922 ft | 141 kts | 181° |
| 2026-04-15 22:39 | 38.97458 | -77.43571 | 681 ft | 146 kts | 183° |
| 2026-04-15 22:40 | 38.96454 | -77.43582 | 492 ft | 142 kts | 180° |
| 2026-04-15 22:40 | 38.95465 | -77.43596 | 319 ft | 142 kts | 181° |
| 2026-04-15 22:40 | 38.94606 | -77.43612 | 304 ft | 103 kts | 180° |
| 2026-04-15 22:41 | 38.93637 | -77.43626 | 302 ft | 45 kts | 181° |
| 2026-04-15 22:41 | 38.93447 | -77.43707 | 302 ft | 24 kts | 213° |
| 2026-04-15 22:41 | 38.93327 | -77.43819 | 296 ft | 13 kts | 249° |
| 2026-04-15 22:41 | 38.93325 | -77.43866 | 294 ft | 0 kts | 279° |
| 2026-04-15 22:42 | 38.93333 | -77.43875 | 297 ft | 5 kts | 325° |
| 2026-04-15 22:42 | 38.93409 | -77.43882 | 296 ft | 15 kts | 0° |
| 2026-04-15 22:42 | 38.93510 | -77.43880 | 296 ft | 14 kts | 1° |
| 2026-04-15 22:42 | 38.93603 | -77.43879 | 296 ft | 13 kts | 0° |
| 2026-04-15 22:43 | 38.93686 | -77.43878 | 296 ft | 11 kts | 0° |